Albion, MI

3:25 AM EST on December 04, 2016 (GMT -0500)
MesoWest | | Change Station

Elev 948 ft 42.26 °N, 84.77 °W | Updated 1 hour ago

Overcast
Overcast
32.0 °F
Feels Like 32.0 °F
N
0.0
Wind Variable Wind from North
Gusts 0.0 mph

Today
High -- | Low -- °F
--% Chance of Precip.
Yesterday
High -- | Low -- °F
Precip. -- in
Pressure 30.25 in
Visibility 10.0 miles
Clouds Overcast 3200 ft
Dew Point 26.0 °F
Humidity 77%
Rainfall in
Snow Depth Not available.
7:51 AM 5:07 PM
Waxing Crescent, 21% visible
METAR KRMY 040814Z AUTO 00000KT 10SM OVC032 01/M01 A3025 RMK AO2 T00051014
Pressure 30.25 in
Visibility 10.0 miles
Clouds Overcast 3200 ft
Dew Point 26.0 °F
Humidity 77%
Rainfall in
Snow Depth Not available.
7:51 AM 5:07 PM
Waxing Crescent, 21% visible
METAR KRMY 040814Z AUTO 00000KT 10SM OVC032 01/M01 A3025 RMK AO2 T00051014

10-Day Weather Forecast

Almanac

Astronomy

Dec. 04, 2016 Rise Set
Actual Time
Civil Twilight
Nautical Twilight
Astronomical Twilight
Moon
Length of Visible Light
Length of Day
Tomorrow will be .
, % of the Moon is Illuminated

Today's Extremes

State Highs State Lows

Community

WunderPhotos

Upload Photos

1,955,587 photos uploaded!

WunderBlog® & News

Nearby

Air Quality

  Air Quality AQ Index Pollutant
Not available.

Snow Depth

Station Depth Elevation

Earthquake Activity

City Distance Mag. Time & Date
Minimum magnitude displayed is 2.5.

Coastal Water Temperatures

Place Temperature

Stations

Nearby Weather Stations

Station Location Temp. Windchill Dew Point Humidity Wind Precip. Elev Updated Type
                   

Watches & Warnings

There are currently no watches in effect.